Time;durP1;ratioP1;P1;durP2;ratioP2;P2;SDS_P1;SDS_P2;PMS_P1;PMS_P2;Temp;Humidity;BMP_temperature;BMP_pressure;BME280_temperature;BME280_humidity;BME280_pressure;Samples;Min_cycle;Max_cycle;Signal;HPM_P1;HPM_P2
2023/09/10 00:02:32;;;;;;;5.18;4.55;;;;;;;9.13;91.66;95723.88;6196034;28;20050;-67
2023/09/10 00:05:34;;;;;;;7.32;5.18;;;;;;;9.25;91.50;95779.84;6195767;28;20051;-68
2023/09/10 00:08:38;;;;;;;7.05;5.38;;;;;;;9.12;91.28;95777.34;6197261;28;20046;-68
2023/09/10 00:11:41;;;;;;;;;;;;;;;8.97;90.86;95782.81;6196537;28;20038;-68
2023/09/10 00:14:45;;;;;;;8.65;6.80;;;;;;;8.86;91.06;95788.03;6197138;28;19922;-69
2023/09/10 00:17:52;;;;;;;8.43;6.93;;;;;;;8.82;91.26;95785.75;6197094;28;20049;-69
2023/09/10 00:20:53;;;;;;;9.43;7.68;;;;;;;8.90;91.52;95786.84;6197344;28;20065;-69
2023/09/10 00:23:57;;;;;;;10.13;7.40;;;;;;;8.97;91.86;95785.44;6197043;28;20046;-69
2023/09/10 00:27:03;;;;;;;8.70;6.38;;;;;;;9.08;91.88;95784.59;6196821;28;20038;-69
2023/09/10 00:30:09;;;;;;;10.02;5.38;;;;;;;9.22;92.17;95796.66;6195724;28;20050;-69
2023/09/10 00:33:10;;;;;;;6.20;5.03;;;;;;;9.32;92.11;95797.63;6195925;28;20057;-69
2023/09/10 00:36:14;;;;;;;6.78;5.22;;;;;;;9.40;92.34;95787.38;6195281;28;20486;-69
2023/09/10 00:39:15;;;;;;;10.15;6.65;;;;;;;9.50;92.40;95799.78;6196537;28;20073;-69
2023/09/10 00:42:22;;;;;;;15.20;9.38;;;;;;;9.52;92.27;95795.25;6196079;28;20058;-69
2023/09/10 00:45:27;;;;;;;14.32;8.60;;;;;;;9.50;91.97;95794.53;6196461;28;20049;-70
2023/09/10 00:48:30;;;;;;;11.68;7.68;;;;;;;9.51;92.10;95801.44;6196193;28;20046;-70
2023/09/10 00:51:36;;;;;;;9.48;6.35;;;;;;;9.48;91.85;95804.31;6196096;28;20054;-70
2023/09/10 00:54:40;;;;;;;7.40;5.15;;;;;;;9.45;91.65;95802.75;6196488;28;20301;-70
2023/09/10 00:57:43;;;;;;;7.10;4.72;;;;;;;9.41;91.64;95801.34;6195863;28;20407;-70
2023/09/10 01:00:46;;;;;;;6.30;4.53;;;;;;;9.36;91.37;95803.47;6193927;28;20430;-70
2023/09/10 01:03:49;;;;;;;4.82;3.65;;;;;;;9.33;91.42;95807.19;6196050;28;20469;-70
2023/09/10 01:06:54;;;;;;;5.18;3.90;;;;;;;9.30;91.56;95802.16;6196115;28;20045;-70
2023/09/10 01:09:58;;;;;;;6.72;4.25;;;;;;;9.41;91.52;95807.41;6196428;28;20042;-69
2023/09/10 01:13:41;;;;;;;5.97;3.30;;;;;;;9.50;91.65;95802.41;6194926;28;20054;-70
2023/09/10 01:16:51;;;;;;;6.78;4.57;;;;;;;9.52;91.69;95813.66;6195567;28;20068;-69
2023/09/10 01:19:59;;;;;;;12.60;6.60;;;;;;;9.56;91.65;95812.44;6195731;28;20050;-69
2023/09/10 01:23:06;;;;;;;11.30;6.78;;;;;;;9.54;91.54;95816.97;6194450;28;20493;-69
2023/09/10 01:26:07;;;;;;;11.60;5.97;;;;;;;9.53;91.42;95804.81;6194274;28;20047;-70
2023/09/10 01:29:13;;;;;;;10.35;5.93;;;;;;;9.60;91.49;95806.00;6194210;28;20140;-69
2023/09/10 01:32:23;;;;;;;11.82;5.97;;;;;;;9.65;91.62;95803.84;6194710;28;20053;-69
2023/09/10 01:35:52;;;;;;;9.20;5.45;;;;;;;9.73;91.66;95811.13;6195465;28;20417;-69
2023/09/10 01:39:07;;;;;;;9.57;5.70;;;;;;;9.78;91.36;95820.31;6195153;28;20050;-69
2023/09/10 01:42:15;;;;;;;10.07;5.30;;;;;;;9.75;91.26;95825.81;6194721;28;20057;-69
2023/09/10 01:45:18;;;;;;;7.20;5.03;;;;;;;9.72;91.20;95820.81;6195306;28;20045;-69
2023/09/10 01:48:20;;;;;;;13.45;7.18;;;;;;;9.73;91.32;95817.22;6194680;28;20425;-69
2023/09/10 01:51:25;;;;;;;18.15;12.25;;;;;;;9.73;91.18;95811.13;6194063;28;20466;-69
2023/09/10 01:54:32;;;;;;;11.80;7.13;;;;;;;9.74;91.29;95813.66;6194959;28;20046;-69
2023/09/10 01:57:36;;;;;;;11.32;5.95;;;;;;;9.74;91.18;95818.91;6194845;28;20136;-69
2023/09/10 02:00:41;;;;;;;7.75;5.28;;;;;;;9.74;91.07;95818.91;6195432;28;20482;-69
2023/09/10 02:03:45;;;;;;;7.28;4.63;;;;;;;9.80;91.13;95813.16;6194193;28;20049;-69
2023/09/10 02:06:47;;;;;;;6.05;3.78;;;;;;;9.82;91.29;95819.13;6193121;28;20057;-69
2023/09/10 02:09:54;;;;;;;5.43;4.20;;;;;;;9.82;91.13;95821.75;6195003;28;20510;-69
2023/09/10 02:12:58;;;;;;;6.00;3.42;;;;;;;9.81;91.00;95824.50;6195265;28;20049;-69
2023/09/10 02:16:02;;;;;;;7.13;3.90;;;;;;;9.78;90.60;95828.19;6194979;28;20049;-69
2023/09/10 02:19:06;;;;;;;5.78;3.80;;;;;;;9.82;90.87;95832.28;6194969;28;20043;-69
2023/09/10 02:22:09;;;;;;;5.35;3.63;;;;;;;9.79;90.77;95823.78;6194302;28;20050;-69
2023/09/10 02:25:12;;;;;;;8.77;3.88;;;;;;;9.81;90.74;95830.59;6196922;28;20228;-69
2023/09/10 02:28:21;;;;;;;6.47;3.90;;;;;;;9.77;90.41;95826.53;6198695;28;20054;-69
2023/09/10 02:31:27;;;;;;;5.80;4.38;;;;;;;9.75;90.49;95825.81;6199557;28;20046;-69
2023/09/10 02:34:29;;;;;;;10.88;7.25;;;;;;;9.72;90.28;95826.06;6198833;28;20208;-69
2023/09/10 02:37:31;;;;;;;11.98;6.20;;;;;;;9.75;90.13;95831.06;6199069;28;20513;-69
2023/09/10 02:40:35;;;;;;;6.47;3.90;;;;;;;9.68;89.18;95824.59;6199358;28;20453;-69
2023/09/10 02:43:42;;;;;;;4.88;3.28;;;;;;;9.59;89.38;95830.59;6199413;28;20416;-69
2023/09/10 02:46:52;;;;;;;4.10;2.90;;;;;;;9.63;89.28;95847.78;6199119;28;20501;-69
2023/09/10 02:49:57;;;;;;;4.65;3.17;;;;;;;9.67;89.13;95844.78;6198403;28;20054;-68
2023/09/10 02:53:01;;;;;;;5.18;3.38;;;;;;;9.68;88.81;95837.75;6198786;28;20049;-68
2023/09/10 02:56:02;;;;;;;6.38;3.85;;;;;;;9.76;89.25;95848.50;6198578;28;20055;-68
2023/09/10 02:59:07;;;;;;;8.20;5.15;;;;;;;9.83;89.13;95848.88;6198597;28;20046;-68
2023/09/10 03:02:11;;;;;;;5.85;4.18;;;;;;;9.86;88.76;95854.72;6198377;28;20050;-68
2023/09/10 03:05:13;;;;;;;10.07;5.60;;;;;;;9.87;88.77;95853.75;6198894;28;20038;-69
2023/09/10 03:08:17;;;;;;;8.45;5.38;;;;;;;9.90;88.81;95850.03;6198558;28;20042;-68
2023/09/10 03:11:23;;;;;;;11.98;7.22;;;;;;;9.94;88.66;95855.91;6198871;28;20125;-68
2023/09/10 03:14:27;;;;;;;19.58;10.15;;;;;;;9.94;88.54;95853.28;6198715;28;20411;-68
2023/09/10 03:17:31;;;;;;;12.57;8.07;;;;;;;9.97;88.41;95860.94;6198447;28;20050;-68
2023/09/10 03:20:39;;;;;;;13.88;7.82;;;;;;;10.01;88.55;95867.59;6198044;28;20058;-68
2023/09/10 03:23:46;;;;;;;10.77;7.00;;;;;;;9.98;88.39;95858.16;6198312;28;20050;-68
2023/09/10 03:26:50;;;;;;;11.93;6.32;;;;;;;10.01;88.28;95868.44;6198316;28;20049;-68
2023/09/10 03:29:56;;;;;;;9.27;5.55;;;;;;;9.96;87.87;95878.47;6198206;28;20035;-68
2023/09/10 03:33:00;;;;;;;6.82;4.70;;;;;;;9.97;87.95;95876.69;6198074;28;20051;-69
2023/09/10 03:36:01;;;;;;;6.68;4.40;;;;;;;9.96;87.63;95880.25;6195738;28;20058;-69
2023/09/10 03:39:07;;;;;;;5.47;3.72;;;;;;;9.99;87.69;95885.28;6198126;28;20053;-69
2023/09/10 03:42:16;;;;;;;9.38;4.70;;;;;;;9.98;87.84;95888.88;6197445;28;20428;-69
2023/09/10 03:45:22;;;;;;;7.10;4.80;;;;;;;10.01;87.94;95893.88;6196471;28;20070;-69
2023/09/10 03:48:23;;;;;;;;;;;;;;;10.06;87.34;95892.56;6197530;28;20348;-69
2023/09/10 03:51:30;;;;;;;19.58;13.60;;;;;;;10.11;88.34;95889.59;6197570;28;20052;-67
2023/09/10 03:54:31;;;;;;;27.85;15.55;;;;;;;10.13;88.54;95890.28;6197622;28;20038;-69
2023/09/10 03:57:35;;;;;;;59.58;35.72;;;;;;;10.21;88.30;95901.03;6197429;28;20133;-69
2023/09/10 04:00:37;;;;;;;28.15;18.92;;;;;;;10.19;87.91;95895.09;6195785;28;20050;-68
2023/09/10 04:03:39;;;;;;;11.88;8.60;;;;;;;10.20;88.03;95891.47;6197511;28;20097;-69
2023/09/10 04:06:45;;;;;;;5.35;4.47;;;;;;;10.12;87.77;95899.97;6197437;28;20034;-69
2023/09/10 04:09:49;;;;;;;3.50;2.83;;;;;;;10.11;87.61;95902.72;6198070;28;20062;-68
2023/09/10 04:12:56;;;;;;;12.18;8.18;;;;;;;10.06;87.77;95902.25;6197512;28;20049;-69
2023/09/10 04:16:00;;;;;;;3.90;3.08;;;;;;;10.11;87.56;95902.72;6197128;28;20050;-68
2023/09/10 04:19:02;;;;;;;4.45;3.05;;;;;;;10.14;87.75;95905.13;6197176;28;20038;-68
2023/09/10 04:22:04;;;;;;;3.65;2.55;;;;;;;10.19;87.47;95904.72;6196618;28;20046;-68
2023/09/10 04:25:06;;;;;;;3.13;2.60;;;;;;;10.17;87.55;95899.63;6196873;28;20042;-68
2023/09/10 04:28:07;;;;;;;3.30;2.60;;;;;;;10.27;87.66;95905.84;6196292;28;20046;-68
2023/09/10 04:31:13;;;;;;;8.27;4.88;;;;;;;10.34;87.63;95911.47;6196478;28;20034;-68
2023/09/10 04:34:17;;;;;;;3.88;3.17;;;;;;;10.33;87.58;95904.50;6196485;28;20491;-68
2023/09/10 04:37:20;;;;;;;;;;;;;;;10.41;87.23;95906.53;6195773;28;20050;-68
2023/09/10 04:40:23;;;;;;;4.38;2.17;;;;;;;10.31;87.60;95911.72;6196347;28;19921;-67
2023/09/10 04:43:26;;;;;;;2.90;2.00;;;;;;;10.23;87.32;95914.91;6194894;28;20045;-70
2023/09/10 04:46:31;;;;;;;2.58;2.20;;;;;;;10.26;87.05;95913.81;6196375;28;20046;-68
2023/09/10 04:49:34;;;;;;;4.68;2.67;;;;;;;10.29;87.01;95914.44;6195579;28;20050;-68
2023/09/10 04:52:56;;;;;;;4.43;3.00;;;;;;;10.29;86.79;95909.19;6196230;28;20046;-68
2023/09/10 04:55:59;;;;;;;3.30;3.00;;;;;;;10.28;86.43;95912.78;6196096;28;20046;-68
2023/09/10 04:59:03;;;;;;;3.45;2.97;;;;;;;10.26;85.89;95909.41;6196114;28;20046;-69
2023/09/10 05:02:07;;;;;;;;;;;;;;;10.19;85.28;95910.84;6197268;28;20490;-67
2023/09/10 05:05:10;;;;;;;5.97;4.28;;;;;;;10.14;85.40;95905.13;6198542;28;19922;-68
2023/09/10 05:08:12;;;;;;;6.70;4.40;;;;;;;10.10;85.38;95904.50;6197109;28;20038;-68
2023/09/10 05:11:18;;;;;;;6.10;3.80;;;;;;;10.19;85.58;95917.88;6198573;28;20506;-68
2023/09/10 05:14:22;;;;;;;5.82;4.25;;;;;;;10.23;85.61;95914.91;6196874;28;20053;-68
2023/09/10 05:17:23;;;;;;;4.90;4.35;;;;;;;10.30;85.75;95916.13;6195869;28;20050;-69
2023/09/10 05:20:27;;;;;;;9.98;7.30;;;;;;;10.40;85.37;95918.03;6195831;28;20050;-69
2023/09/10 05:23:29;;;;;;;8.00;5.95;;;;;;;10.55;85.14;95924.69;6194751;28;20058;-69
2023/09/10 05:26:34;;;;;;;;;;;;;;;10.62;84.41;95925.88;6196261;28;20046;-69
2023/09/10 05:29:38;;;;;;;7.22;5.05;;;;;;;10.64;84.99;95931.84;6195514;28;19922;-69
2023/09/10 05:32:39;;;;;;;8.73;5.05;;;;;;;10.74;84.81;95921.41;6195010;28;20502;-69
2023/09/10 05:35:40;;;;;;;9.93;5.60;;;;;;;10.86;84.62;95925.69;6194936;28;20453;-69
2023/09/10 05:38:42;;;;;;;8.65;5.72;;;;;;;10.97;84.13;95924.81;6194164;28;20054;-69
2023/09/10 05:41:43;;;;;;;7.25;5.60;;;;;;;11.05;83.77;95917.13;6194616;28;20046;-69
2023/09/10 05:44:50;;;;;;;;;;;;;;;11.14;82.87;95916.38;6195759;28;20050;-69
2023/09/10 05:47:53;;;;;;;7.65;5.00;;;;;;;11.09;84.18;95913.28;6195174;28;20428;-69
2023/09/10 05:50:56;;;;;;;5.63;4.70;;;;;;;11.10;83.98;95914.97;6194940;28;20046;-69
2023/09/10 05:53:58;;;;;;;8.93;4.63;;;;;;;11.11;83.69;95916.63;6194970;28;20529;-69
2023/09/10 05:57:03;;;;;;;5.47;4.22;;;;;;;11.16;83.28;95919.72;6195035;28;20141;-69
2023/09/10 06:00:07;;;;;;;6.40;4.60;;;;;;;11.22;83.18;95918.38;6196186;28;20046;-69
2023/09/10 06:03:13;;;;;;;5.93;4.22;;;;;;;11.29;82.90;95916.06;6199967;28;20041;-69
2023/09/10 06:06:14;;;;;;;5.80;4.45;;;;;;;11.47;82.54;95932.97;6199125;28;20054;-70
2023/09/10 06:09:16;;;;;;;6.13;4.65;;;;;;;11.66;82.24;95917.31;6199437;28;20049;-69
2023/09/10 06:12:17;;;;;;;9.55;6.20;;;;;;;11.86;81.75;95922.69;6200030;28;20410;-69
2023/09/10 06:15:21;;;;;;;;;;;;;;;11.99;80.68;95920.69;6200179;28;20046;-71
2023/09/10 06:18:24;;;;;;;19.33;11.88;;;;;;;12.02;81.97;95915.16;6199522;28;19921;-69
2023/09/10 06:21:31;;;;;;;9.07;6.65;;;;;;;12.32;81.06;95913.47;6199845;28;20050;-69
2023/09/10 06:24:35;;;;;;;8.25;5.07;;;;;;;12.89;79.65;95911.94;6199595;28;20046;-69
2023/09/10 06:27:36;;;;;;;7.50;4.85;;;;;;;13.47;78.05;95912.00;6199101;28;20069;-69
2023/09/10 06:30:40;;;;;;;;;;;;;;;14.11;77.37;95915.72;6199810;28;20042;-69
2023/09/10 06:33:43;;;;;;;5.38;4.47;;;;;;;14.04;77.21;95913.78;6198852;28;19929;-69
2023/09/10 06:36:45;;;;;;;7.03;4.88;;;;;;;13.88;77.01;95917.88;6197009;28;20488;-68
2023/09/10 06:39:46;;;;;;;6.57;4.50;;;;;;;13.58;76.97;95912.78;6197745;28;20041;-68
2023/09/10 06:42:48;;;;;;;10.63;5.30;;;;;;;13.17;77.86;95914.75;6198976;28;20042;-68
2023/09/10 06:45:55;;;;;;;11.90;6.00;;;;;;;12.59;79.28;95911.03;6198994;28;20069;-68
2023/09/10 06:48:59;;;;;;;10.13;5.88;;;;;;;12.34;80.92;95922.06;6198485;28;20098;-68
2023/09/10 06:52:04;;;;;;;13.07;7.35;;;;;;;12.01;81.57;95924.03;6198980;28;20038;-68
2023/09/10 06:55:06;;;;;;;15.02;9.07;;;;;;;11.73;81.94;95922.88;6198601;28;20045;-68
2023/09/10 06:58:14;;;;;;;11.45;7.68;;;;;;;11.38;82.60;95929.31;6198609;28;20603;-69
2023/09/10 07:01:20;;;;;;;10.27;6.45;;;;;;;11.17;83.05;95929.28;6198850;28;20046;-69
2023/09/10 07:04:23;;;;;;;7.70;4.38;;;;;;;10.94;83.38;95914.53;6198310;28;20038;-68
2023/09/10 07:07:30;;;;;;;5.47;2.92;;;;;;;10.81;83.49;95917.31;6199251;28;20529;-68
2023/09/10 07:10:35;;;;;;;10.25;5.53;;;;;;;10.69;84.06;95920.94;6198372;28;20046;-68
2023/09/10 07:13:39;;;;;;;15.93;7.60;;;;;;;10.59;84.19;95920.88;6198309;28;20421;-67
2023/09/10 07:16:46;;;;;;;8.73;4.45;;;;;;;10.52;84.42;95922.31;6198434;28;20046;-67
2023/09/10 07:19:52;;;;;;;5.05;3.78;;;;;;;10.44;84.46;95915.00;6198609;28;20046;-67
2023/09/10 07:22:54;;;;;;;;;;;;;;;10.33;84.01;95921.16;6198586;28;20133;-67
2023/09/10 07:25:57;;;;;;;6.18;3.72;;;;;;;9.98;85.22;95868.69;6198299;28;19928;-67
2023/09/10 07:28:58;;;;;;;;;;;;;;;10.23;85.27;95919.31;6198566;28;20049;-67
2023/09/10 07:32:03;;;;;;;5.88;4.25;;;;;;;9.96;84.98;95909.16;6198238;28;19917;-67
2023/09/10 07:35:05;;;;;;;8.80;5.20;;;;;;;9.75;85.46;95914.31;6197710;28;20061;-67
2023/09/10 07:38:06;;;;;;;9.88;7.13;;;;;;;9.55;85.81;95903.53;6197682;28;20038;-67
2023/09/10 07:41:10;;;;;;;10.95;7.88;;;;;;;9.43;86.18;95921.06;6197786;28;20054;-67
2023/09/10 07:44:12;;;;;;;8.40;6.05;;;;;;;9.36;86.61;95922.44;6197553;28;20042;-67
2023/09/10 07:47:18;;;;;;;9.63;7.15;;;;;;;9.30;86.76;95935.22;6197510;28;20041;-67
2023/09/10 07:50:19;;;;;;;6.35;4.65;;;;;;;9.33;87.64;95925.31;6197632;28;20424;-67
2023/09/10 07:53:21;;;;;;;9.02;4.82;;;;;;;9.48;87.82;95930.34;6196355;28;20482;-67
2023/09/10 07:56:25;;;;;;;7.60;5.55;;;;;;;9.61;88.02;95931.13;6196963;28;20045;-67
2023/09/10 07:59:26;;;;;;;;;;;;;;;9.87;88.42;95924.69;6197759;28;20049;-67
2023/09/10 08:02:30;;;;;;;5.38;4.10;;;;;;;10.12;88.46;95925.41;6197390;28;19918;-67
2023/09/10 08:05:34;;;;;;;6.38;4.72;;;;;;;10.14;87.40;95933.19;6197162;28;20038;-68
2023/09/10 08:08:38;;;;;;;7.78;5.05;;;;;;;10.14;87.28;95936.66;6197504;28;20429;-67
2023/09/10 08:11:44;;;;;;;5.47;4.45;;;;;;;9.98;87.03;95894.13;6195539;28;20042;-69
2023/09/10 08:14:53;;;;;;;5.78;5.10;;;;;;;10.45;86.96;95947.44;6197218;28;20054;-68
2023/09/10 08:17:55;;;;;;;5.95;5.07;;;;;;;10.59;86.86;95947.19;6197062;28;20136;-69
2023/09/10 08:21:01;;;;;;;7.00;4.75;;;;;;;10.69;87.15;95963.88;6196513;28;20054;-69
2023/09/10 08:24:04;;;;;;;5.38;4.32;;;;;;;10.66;87.13;95964.13;6196239;28;20039;-68
2023/09/10 08:27:12;;;;;;;11.43;5.07;;;;;;;10.65;87.04;95978.25;6197007;28;20042;-68
2023/09/10 08:30:18;;;;;;;20.20;5.78;;;;;;;10.49;87.08;95962.00;6196493;28;20168;-68
2023/09/10 08:33:21;;;;;;;6.00;4.60;;;;;;;10.37;87.47;95962.97;6195662;28;20050;-67
2023/09/10 08:36:22;;;;;;;8.07;4.53;;;;;;;10.31;87.44;95969.56;6196016;28;20051;-67
2023/09/10 08:39:29;;;;;;;6.57;4.32;;;;;;;10.17;87.03;95952.19;6196306;28;20410;-67
2023/09/10 08:43:04;;;;;;;5.93;4.45;;;;;;;10.04;86.85;95954.09;6196317;28;20042;-67
2023/09/10 08:46:10;;;;;;;6.03;4.65;;;;;;;9.86;87.41;95959.81;6196390;28;20137;-66
2023/09/10 08:49:14;;;;;;;;;;;;;;;9.93;87.68;95964.59;6195990;28;20042;-66
2023/09/10 08:52:17;;;;;;;10.80;4.65;;;;;;;9.87;88.38;95977.22;6196108;28;19917;-66
2023/09/10 08:55:25;;;;;;;5.47;4.40;;;;;;;9.98;88.77;95978.22;6196471;28;20042;-66
2023/09/10 08:58:28;;;;;;;8.05;5.30;;;;;;;9.96;88.53;95985.38;6195852;28;20046;-66
2023/09/10 09:01:29;;;;;;;7.88;5.53;;;;;;;9.95;88.19;95981.91;6195839;28;20034;-66
2023/09/10 09:04:31;;;;;;;29.38;6.75;;;;;;;9.89;88.29;95980.59;6195859;28;20042;-66
2023/09/10 09:07:41;;;;;;;6.50;4.70;;;;;;;9.85;88.52;95980.94;6195785;28;20395;-66
2023/09/10 09:10:46;;;;;;;9.20;5.22;;;;;;;9.81;88.66;95975.09;6196043;28;20625;-66
2023/09/10 09:13:52;;;;;;;6.97;4.95;;;;;;;9.84;88.56;95972.22;6195494;28;20050;-66
2023/09/10 09:16:57;;;;;;;10.18;5.10;;;;;;;9.84;88.65;95972.22;6194841;28;20053;-67
2023/09/10 09:20:00;;;;;;;7.28;5.70;;;;;;;9.90;88.60;95969.13;6195410;28;20050;-67
2023/09/10 09:23:20;;;;;;;9.00;5.75;;;;;;;9.97;88.93;95966.03;6194925;28;20042;-67
2023/09/10 09:26:22;;;;;;;10.35;5.50;;;;;;;10.09;89.37;95970.34;6195857;28;20042;-68
2023/09/10 09:29:28;;;;;;;;;;;;;;;10.38;89.11;95969.91;6196320;28;20506;-66
2023/09/10 09:32:33;;;;;;;9.20;5.13;;;;;;;10.56;89.26;95957.94;6195034;28;19926;-67
2023/09/10 09:35:35;;;;;;;5.15;4.55;;;;;;;11.01;89.53;95966.56;6194737;28;20068;-67
2023/09/10 09:38:44;;;;;;;10.02;4.82;;;;;;;12.44;89.31;95965.16;6212394;28;20046;-69
2023/09/10 09:41:50;;;;;;;9.98;5.00;;;;;;;14.36;86.29;95969.81;6217937;28;20045;-69
2023/09/10 09:45:00;;;;;;;6.25;5.18;;;;;;;16.76;81.05;95975.31;6219575;28;20129;-69
2023/09/10 09:48:05;;;;;;;9.93;4.97;;;;;;;18.62;76.65;95969.44;6219452;28;20042;-70
2023/09/10 09:51:10;;;;;;;5.35;4.05;;;;;;;20.68;72.88;95972.41;6201594;28;20054;-68
2023/09/10 09:54:12;;;;;;;4.78;3.38;;;;;;;23.18;67.22;95971.44;6218208;28;20045;-68
2023/09/10 09:57:13;;;;;;;4.78;2.97;;;;;;;25.06;62.05;95974.91;6218374;28;20050;-68
2023/09/10 10:00:15;;;;;;;3.67;3.05;;;;;;;26.61;57.73;95971.06;6218936;28;20053;-69
2023/09/10 10:03:19;;;;;;;2.95;2.47;;;;;;;28.45;53.03;95970.84;6201547;28;20070;-69
2023/09/10 10:06:23;;;;;;;2.10;1.90;;;;;;;30.08;49.47;95967.19;6220316;28;20042;-68
2023/09/10 10:09:36;;;;;;;2.00;1.50;;;;;;;31.14;43.59;95964.53;6218329;28;20053;-68
2023/09/10 10:12:43;;;;;;;2.75;1.65;;;;;;;31.79;44.58;95972.91;6219795;28;20493;-70
2023/09/10 10:15:49;;;;;;;2.25;1.60;;;;;;;31.89;41.97;95965.69;6219458;28;20512;-69
2023/09/10 10:18:54;;;;;;;4.13;1.60;;;;;;;31.81;40.33;95951.72;6218494;28;20429;-69
2023/09/10 10:21:58;;;;;;;2.83;1.27;;;;;;;31.77;37.03;95963.13;6201594;28;20053;-71
2023/09/10 10:25:04;;;;;;;2.70;1.15;;;;;;;32.09;36.85;95956.94;6219468;28;20045;-70
2023/09/10 10:28:09;;;;;;;2.20;1.20;;;;;;;32.37;33.95;95960.44;6201711;28;20038;-69
2023/09/10 10:31:18;;;;;;;2.25;1.45;;;;;;;32.90;32.44;95958.69;6219305;28;20046;-69
2023/09/10 10:34:23;;;;;;;2.35;1.05;;;;;;;32.73;30.73;95952.59;6218394;28;20053;-68
2023/09/10 10:37:43;;;;;;;1.58;0.82;;;;;;;32.92;31.71;95961.94;6218288;28;20552;-68
2023/09/10 10:40:50;;;;;;;1.10;0.75;;;;;;;32.63;28.82;95959.56;6218765;28;20045;-69
2023/09/10 10:44:01;;;;;;;1.30;0.80;;;;;;;32.12;27.87;95952.88;6218338;28;20699;-69
2023/09/10 10:47:22;;;;;;;1.65;0.88;;;;;;;32.37;28.48;95960.44;6221652;28;20046;-69
2023/09/10 10:50:30;;;;;;;0.70;0.55;;;;;;;30.86;27.94;95952.75;6205329;28;20042;-69
2023/09/10 10:53:35;;;;;;;7.72;1.42;;;;;;;30.38;28.22;95950.63;6222930;28;20137;-70
2023/09/10 10:56:37;;;;;;;;;;;;;;;30.55;30.85;95956.06;6223058;28;20501;-69
2023/09/10 10:59:41;;;;;;;2.00;1.02;;;;;;;28.17;31.00;95947.97;6223147;28;19921;-69
2023/09/10 11:02:49;;;;;;;0.82;0.82;;;;;;;26.13;32.16;95955.53;6223316;28;20046;-69
2023/09/10 11:05:53;;;;;;;1.25;1.15;;;;;;;26.24;30.91;95949.38;6223181;28;20547;-69
2023/09/10 11:08:58;;;;;;;0.90;0.80;;;;;;;26.45;31.52;95950.06;6222980;28;20402;-69
2023/09/10 11:12:06;;;;;;;1.10;1.00;;;;;;;25.35;32.24;95948.50;6222859;28;20054;-69
2023/09/10 11:15:10;;;;;;;0.63;0.60;;;;;;;24.52;34.56;95941.09;6221988;28;20052;-68
2023/09/10 11:18:37;;;;;;;2.05;1.08;;;;;;;25.14;35.21;95943.38;6222685;28;20569;-69
2023/09/10 11:21:56;;;;;;;0.95;0.88;;;;;;;27.13;33.64;95932.97;6222197;28;20045;-69
2023/09/10 11:25:06;;;;;;;2.20;0.90;;;;;;;28.57;30.09;95952.72;6222639;28;20042;-70
2023/09/10 11:28:40;;;;;;;1.00;0.90;;;;;;;28.39;30.60;95960.91;6222676;28;20435;-70
2023/09/10 11:31:45;;;;;;;1.83;1.10;;;;;;;26.48;32.50;95961.22;6221558;28;20128;-70
2023/09/10 11:34:47;;;;;;;1.50;1.17;;;;;;;24.49;35.39;95952.28;6196355;28;20056;-70
2023/09/10 11:37:50;;;;;;;0.93;0.90;;;;;;;23.06;38.27;95938.16;6197733;28;20069;-69
2023/09/10 11:40:53;;;;;;;1.50;1.25;;;;;;;22.32;40.03;95934.25;6197668;28;20050;-69
2023/09/10 11:43:59;;;;;;;2.10;1.42;;;;;;;22.56;38.70;95934.78;6197681;28;20081;-70
2023/09/10 11:47:04;;;;;;;1.45;1.20;;;;;;;22.21;38.71;95942.81;6196698;28;20042;-69
2023/09/10 11:50:09;;;;;;;1.95;1.63;;;;;;;21.64;39.28;95939.22;6197752;28;20046;-69
2023/09/10 11:53:11;;;;;;;1.92;1.60;;;;;;;20.87;38.34;95950.47;6197376;28;20053;-70
2023/09/10 11:56:13;;;;;;;1.40;1.27;;;;;;;19.52;41.69;95945.03;6196774;28;20050;-69
2023/09/10 11:59:19;;;;;;;2.03;1.65;;;;;;;18.97;42.78;95952.19;6196601;28;20061;-70
2023/09/10 12:02:24;;;;;;;2.85;1.35;;;;;;;18.53;43.66;95943.84;6197155;28;20042;-70
2023/09/10 12:05:29;;;;;;;1.20;1.00;;;;;;;18.15;44.36;95947.09;6197149;28;20042;-69
2023/09/10 12:08:34;;;;;;;1.35;1.00;;;;;;;17.61;45.27;95941.47;6197239;28;20494;-69
2023/09/10 12:11:40;;;;;;;1.88;1.67;;;;;;;17.11;46.99;95941.56;6196782;28;20046;-71
2023/09/10 12:14:47;;;;;;;1.70;1.42;;;;;;;16.71;48.29;95951.03;6197318;28;20042;-70
2023/09/10 12:17:51;;;;;;;1.83;1.08;;;;;;;16.39;48.57;95953.38;6195386;28;20441;-70
2023/09/10 12:20:58;;;;;;;1.10;0.80;;;;;;;16.07;49.52;95959.31;6196937;28;20550;-69
2023/09/10 12:24:02;;;;;;;3.70;2.05;;;;;;;15.89;50.90;95963.84;6196695;28;20046;-70
2023/09/10 12:27:04;;;;;;;4.82;2.60;;;;;;;15.50;51.35;95950.91;6196359;28;20050;-69
2023/09/10 12:30:07;;;;;;;2.92;2.22;;;;;;;15.13;52.14;95953.69;6196511;28;20038;-69
2023/09/10 12:33:10;;;;;;;3.28;2.90;;;;;;;14.55;53.71;95976.03;6203977;28;20088;-69
2023/09/10 12:36:14;;;;;;;5.47;3.47;;;;;;;13.91;55.20;95967.84;6220478;28;20042;-69
2023/09/10 12:39:20;;;;;;;4.25;2.72;;;;;;;13.36;57.49;95972.91;6202569;28;20100;-70
2023/09/10 12:42:22;;;;;;;5.55;3.08;;;;;;;13.07;58.53;95977.28;6220679;28;20041;-70
2023/09/10 12:45:26;;;;;;;4.28;3.67;;;;;;;12.56;59.72;95985.19;6220006;28;20046;-70
2023/09/10 12:48:27;;;;;;;3.42;2.33;;;;;;;12.15;61.17;95995.88;6219895;28;20057;-70
2023/09/10 12:51:32;;;;;;;3.53;2.17;;;;;;;11.93;61.27;95989.75;6220595;28;20116;-70
2023/09/10 12:54:39;;;;;;;1.98;1.75;;;;;;;11.75;61.82;95986.00;6220523;28;20041;-70
2023/09/10 12:57:40;;;;;;;3.17;2.03;;;;;;;11.58;62.21;95988.25;6219708;28;20532;-71
2023/09/10 13:00:54;;;;;;;3.38;2.17;;;;;;;11.58;63.25;95997.97;6220409;28;20045;-70
2023/09/10 13:03:56;;;;;;;4.13;2.42;;;;;;;11.42;63.16;95993.09;6219889;28;20041;-69
2023/09/10 13:07:00;;;;;;;4.00;2.70;;;;;;;11.31;64.18;96001.06;6220389;28;20531;-71
2023/09/10 13:10:03;;;;;;;7.78;4.80;;;;;;;11.18;64.55;96002.06;6219506;28;20071;-71
2023/09/10 13:13:07;;;;;;;5.88;3.70;;;;;;;11.06;64.87;96008.31;6220152;28;20042;-70
2023/09/10 13:16:09;;;;;;;;;;;;;;;10.91;64.92;96014.81;6220384;28;20209;-71
2023/09/10 13:19:16;;;;;;;5.07;3.05;;;;;;;10.96;65.47;96012.66;6220134;28;19921;-70
2023/09/10 13:22:17;;;;;;;4.22;3.00;;;;;;;10.97;66.31;96015.13;6220072;28;20049;-70
2023/09/10 13:25:18;;;;;;;4.57;2.90;;;;;;;10.92;67.17;96011.19;6219503;28;20517;-71
2023/09/10 13:28:23;;;;;;;4.55;3.00;;;;;;;10.90;67.76;96018.38;6219855;28;20081;-71
2023/09/10 13:31:28;;;;;;;3.90;3.22;;;;;;;10.89;69.13;96017.53;6219016;28;20049;-71
2023/09/10 13:34:32;;;;;;;4.95;3.72;;;;;;;10.93;70.00;96024.25;6218944;28;20620;-70
2023/09/10 13:37:38;;;;;;;4.53;3.10;;;;;;;10.94;70.86;96014.56;6219406;28;20437;-71
2023/09/10 13:40:41;;;;;;;5.38;3.67;;;;;;;11.00;71.48;96030.69;6219888;28;20061;-70
2023/09/10 13:43:45;;;;;;;6.55;4.13;;;;;;;10.97;71.76;96025.66;6201790;28;20137;-70
2023/09/10 13:46:50;;;;;;;6.53;4.85;;;;;;;10.91;72.19;96020.06;6219479;28;20512;-70
2023/09/10 13:49:54;;;;;;;25.75;18.20;;;;;;;10.95;72.57;96022.31;6219437;28;20143;-69
2023/09/10 13:52:59;;;;;;;25.75;15.52;;;;;;;11.01;73.18;96015.72;6218721;28;20052;-70
2023/09/10 13:56:04;;;;;;;21.00;12.02;;;;;;;10.99;73.57;96015.03;6219601;28;20038;-69
2023/09/10 13:59:05;;;;;;;7.97;6.45;;;;;;;10.94;73.86;96015.38;6219414;28;20053;-70
2023/09/10 14:02:06;;;;;;;10.63;6.50;;;;;;;10.91;74.35;96014.81;6218788;28;20532;-71
2023/09/10 14:05:08;;;;;;;9.80;6.50;;;;;;;10.88;74.98;96021.16;6218770;28;20425;-70
2023/09/10 14:08:15;;;;;;;6.97;5.90;;;;;;;10.87;75.12;96013.34;6219279;28;20129;-69
2023/09/10 14:11:16;;;;;;;8.20;6.07;;;;;;;10.89;75.47;96006.19;6219385;28;20416;-69
2023/09/10 14:14:20;;;;;;;9.95;5.97;;;;;;;10.88;75.83;96009.78;6218570;28;20049;-70
2023/09/10 14:17:22;;;;;;;9.75;6.38;;;;;;;10.89;76.17;96000.94;6201411;28;20603;-70
2023/09/10 14:20:28;;;;;;;8.85;6.35;;;;;;;10.87;76.32;96008.09;6221553;28;20549;-70
2023/09/10 14:23:31;;;;;;;13.32;6.78;;;;;;;10.86;76.44;96009.06;6227340;28;20045;-70
2023/09/10 14:26:33;;;;;;;12.77;7.40;;;;;;;10.85;76.99;96015.31;6226806;28;20133;-70
2023/09/10 14:29:38;;;;;;;15.23;8.10;;;;;;;10.80;77.52;96018.28;6227960;28;20501;-70
2023/09/10 14:32:43;;;;;;;11.52;6.80;;;;;;;10.81;77.57;96024.38;6226470;28;20054;-70
2023/09/10 14:35:46;;;;;;;9.97;7.37;;;;;;;10.72;77.94;96021.50;6224551;28;20046;-71